Burley, Idaho
Current Conditions -  °F | °C
As of 5:53 PM on Sunday 23 Nov 2014 (Local Time) from KBYI Reporting Station
Few Clouds Few Clouds  
Wind Chill: 24°   Ceiling: Unl
Heat Index: 33°   Visibility: 10mi
Dew Point: 26°   Wind: 12mph
Humidity: 75%   Direction: 240°WSW
Pressure: 30.2"   Gusts: NA
Location:  42.53°N, 113.79°W
Report Text: KBYI 240053Z AUTO 24010KT 10SM FEW065 01/M03 A3020 RMK AO2 SLP244 T00061033
Loading
Personal Weather Stations






























Interactive Weather Map New forecast layout! Learn more

10-Day Weather Forecast

Advertisements
Track Severe Weather on mobile